createdAt,value
2018-07-14T00:02:25.567Z,101612.94
2018-07-14T00:04:54.476Z,101608.82
2018-07-14T00:07:23.644Z,101609.89
2018-07-14T00:09:52.564Z,101611.27
2018-07-14T00:12:21.500Z,101610.19
2018-07-14T00:14:50.412Z,101603.30
2018-07-14T00:17:19.295Z,101609.87
2018-07-14T00:19:48.212Z,101606.59
2018-07-14T00:22:17.235Z,101611.25
2018-07-14T00:24:46.143Z,101612.30
2018-07-14T00:27:15.222Z,101604.37
2018-07-14T00:29:44.156Z,101606.80
2018-07-14T00:32:13.192Z,101599.97
2018-07-14T00:34:42.133Z,101599.67
2018-07-14T00:37:11.025Z,101594.76
2018-07-14T00:39:39.936Z,101595.55
2018-07-14T00:42:08.831Z,101596.32
2018-07-14T00:44:37.921Z,101596.83
2018-07-14T00:47:06.814Z,101597.64
2018-07-14T00:49:35.723Z,101591.38
2018-07-14T00:52:04.757Z,101593.81
2018-07-14T00:54:33.655Z,101596.00
2018-07-14T00:57:02.559Z,101604.44
2018-07-14T00:59:31.454Z,101609.92
2018-07-14T01:02:00.422Z,101607.73
2018-07-14T01:04:29.316Z,101610.46
2018-07-14T01:06:58.208Z,101603.02
2018-07-14T01:09:27.087Z,101602.48
2018-07-14T01:11:55.981Z,101602.48
2018-07-14T01:14:24.908Z,101602.72
2018-07-14T01:16:53.783Z,101600.81
2018-07-14T01:19:22.913Z,101599.72
2018-07-14T01:21:51.822Z,101605.07
2018-07-14T01:24:20.734Z,101605.84
2018-07-14T01:26:49.628Z,101603.40
2018-07-14T01:29:18.529Z,101603.47
2018-07-14T01:31:47.414Z,101607.47
2018-07-14T01:34:16.305Z,101608.05
2018-07-14T01:36:45.220Z,101608.28
2018-07-14T01:39:14.161Z,101602.78
2018-07-14T01:41:43.061Z,101607.44
2018-07-14T01:44:11.994Z,101610.98
2018-07-14T01:46:40.889Z,101607.39
2018-07-14T01:49:09.812Z,101610.37
2018-07-14T01:51:38.707Z,101605.70
2018-07-14T01:54:07.972Z,101615.25
2018-07-14T01:56:36.937Z,101605.70
2018-07-14T01:59:05.990Z,101608.98
2018-07-14T02:01:34.893Z,101612.14
2018-07-14T02:04:03.786Z,101608.52
2018-07-14T02:06:32.704Z,101607.86
2018-07-14T02:09:01.615Z,101612.22
2018-07-14T02:11:30.524Z,101614.47
2018-07-14T02:13:59.426Z,101613.08
2018-07-14T02:16:28.333Z,101619.70
2018-07-14T02:18:57.249Z,101618.52
2018-07-14T02:21:26.166Z,101620.36
2018-07-14T02:23:55.584Z,101618.65
2018-07-14T02:26:24.499Z,101626.78
2018-07-14T02:28:53.409Z,101626.86
2018-07-14T02:31:22.313Z,101630.69
2018-07-14T02:33:51.208Z,101630.45
2018-07-14T02:36:20.113Z,101630.06
2018-07-14T02:38:49.058Z,101630.44
2018-07-14T02:41:17.961Z,101629.45
2018-07-14T02:43:47.073Z,101635.41
2018-07-14T02:46:15.996Z,101627.91
2018-07-14T02:48:44.872Z,101632.47
2018-07-14T02:51:13.792Z,101629.19
2018-07-14T02:53:42.964Z,101625.42
2018-07-14T02:56:11.850Z,101629.55
2018-07-14T02:58:40.775Z,101630.13
2018-07-14T03:01:09.701Z,101630.55
2018-07-14T03:03:38.640Z,101631.14
2018-07-14T03:06:07.538Z,101633.52
2018-07-14T03:08:36.564Z,101628.67
2018-07-14T03:11:05.474Z,101626.75
2018-07-14T03:13:34.394Z,101626.14
2018-07-14T03:16:03.308Z,101622.58
2018-07-14T03:18:32.227Z,101621.13
2018-07-14T03:21:01.311Z,101614.05
2018-07-14T03:23:30.198Z,101611.55
2018-07-14T03:25:59.128Z,101609.95
2018-07-14T03:28:28.060Z,101607.16
2018-07-14T03:30:56.963Z,101607.69
2018-07-14T03:33:25.866Z,101615.83
2018-07-14T03:35:54.761Z,101607.69
2018-07-14T03:38:23.666Z,101608.37
2018-07-14T03:40:52.601Z,101604.34
2018-07-14T03:43:21.479Z,101606.81
2018-07-14T03:45:50.475Z,101604.25
2018-07-14T03:48:19.410Z,101605.91
2018-07-14T03:50:51.575Z,101614.60
2018-07-14T03:53:20.476Z,101610.52
2018-07-14T03:55:49.406Z,101608.41
2018-07-14T03:58:18.325Z,101606.36
2018-07-14T04:00:47.244Z,101603.53
2018-07-14T04:03:16.378Z,101603.92
2018-07-14T04:05:45.389Z,101601.98
2018-07-14T04:08:14.560Z,101607.66
2018-07-14T04:10:43.453Z,101611.65
2018-07-14T04:13:12.370Z,101611.06
2018-07-14T04:15:41.273Z,101611.36
2018-07-14T04:18:10.167Z,101613.56
2018-07-14T04:20:39.081Z,101617.16
2018-07-14T04:23:07.985Z,101615.97
2018-07-14T04:25:36.901Z,101615.67
2018-07-14T04:28:05.855Z,101616.77
2018-07-14T04:30:34.774Z,101622.09
2018-07-14T04:33:03.681Z,101620.83
2018-07-14T04:35:32.576Z,101622.64
2018-07-14T04:38:01.481Z,101625.14
2018-07-14T04:40:30.389Z,101629.23
2018-07-14T04:42:59.371Z,101620.50
2018-07-14T04:45:28.294Z,101618.14
2018-07-14T04:47:57.215Z,101623.07
2018-07-14T04:50:26.153Z,101620.73
2018-07-14T04:52:55.072Z,101629.01
2018-07-14T04:55:23.993Z,101624.95
2018-07-14T04:57:52.903Z,101624.62
2018-07-14T05:00:25.471Z,101621.54
2018-07-14T05:02:54.384Z,101629.04
2018-07-14T05:05:23.285Z,101625.83
2018-07-14T05:07:52.255Z,101628.27
2018-07-14T05:10:22.131Z,101626.41
2018-07-14T05:12:51.170Z,101628.33
2018-07-14T05:15:20.205Z,101622.29
2018-07-14T05:17:49.237Z,101623.72
2018-07-14T05:20:18.160Z,101629.56
2018-07-14T05:22:47.079Z,101625.73
2018-07-14T05:25:15.989Z,101630.92
2018-07-14T05:27:44.926Z,101629.81
2018-07-14T05:30:14.200Z,101632.80
2018-07-14T05:32:43.507Z,101636.41
2018-07-14T05:35:12.441Z,101637.86
2018-07-14T05:37:41.354Z,101638.71
2018-07-14T05:40:10.254Z,101634.94
2018-07-14T05:42:39.228Z,101635.97
2018-07-14T05:45:08.134Z,101633.52
2018-07-14T05:47:37.056Z,101632.73
2018-07-14T05:50:06.202Z,101634.36
2018-07-14T05:52:35.333Z,101642.89
2018-07-14T05:55:04.269Z,101644.48
2018-07-14T05:57:33.229Z,101650.78
2018-07-14T06:00:02.143Z,101658.30
2018-07-14T06:02:31.082Z,101659.54
2018-07-14T06:04:59.981Z,101663.03
2018-07-14T06:07:29.017Z,101657.11
2018-07-14T06:09:57.936Z,101661.49
2018-07-14T06:12:26.957Z,101659.58
2018-07-14T06:14:55.861Z,101661.55
2018-07-14T06:17:24.925Z,101658.82
2018-07-14T06:19:53.793Z,101661.95
2018-07-14T06:22:22.724Z,101664.04
2018-07-14T06:24:54.668Z,101669.38
2018-07-14T06:27:23.569Z,101665.72
2018-07-14T06:29:52.456Z,101669.13
2018-07-14T06:32:21.360Z,101670.95
2018-07-14T06:34:50.274Z,101670.37
2018-07-14T06:37:19.190Z,101674.05
2018-07-14T06:39:48.070Z,101675.20
2018-07-14T06:42:16.986Z,101673.91
2018-07-14T06:44:45.957Z,101678.87
2018-07-14T06:47:14.860Z,101678.13
2018-07-14T06:49:43.862Z,101677.63
2018-07-14T06:52:12.937Z,101676.02
2018-07-14T06:54:41.879Z,101680.95
2018-07-14T06:57:10.787Z,101672.25
2018-07-14T06:59:39.837Z,101676.88
2018-07-14T07:02:08.750Z,101676.42
2018-07-14T07:04:37.665Z,101680.30
2018-07-14T07:07:06.571Z,101677.87
2018-07-14T07:09:35.474Z,101677.37
2018-07-14T07:12:04.442Z,101675.16
2018-07-14T07:14:33.359Z,101681.11
2018-07-14T07:17:02.312Z,101681.75
2018-07-14T07:19:31.233Z,101685.10
2018-07-14T07:22:00.146Z,101686.80
2018-07-14T07:24:29.100Z,101685.42
2018-07-14T07:26:58.071Z,101687.87
2018-07-14T07:29:27.161Z,101686.50
2018-07-14T07:31:56.059Z,101687.31
2018-07-14T07:34:24.978Z,101692.23
2018-07-14T07:36:53.906Z,101690.63
2018-07-14T07:39:22.993Z,101689.87
2018-07-14T07:41:51.929Z,101684.97
2018-07-14T07:44:20.870Z,101688.30
2018-07-14T07:46:49.821Z,101689.48
2018-07-14T07:49:18.722Z,101692.78
2018-07-14T07:51:47.631Z,101691.73
2018-07-14T07:54:16.612Z,101689.33
2018-07-14T07:56:48.759Z,101686.05
2018-07-14T07:59:17.859Z,101685.51
2018-07-14T08:01:46.736Z,101685.17
2018-07-14T08:04:15.643Z,101681.94
2018-07-14T08:06:44.549Z,101682.23
2018-07-14T08:09:13.471Z,101683.92
2018-07-14T08:11:42.373Z,101683.95
2018-07-14T08:14:11.640Z,101682.09
2018-07-14T08:16:40.536Z,101686.48
2018-07-14T08:19:09.475Z,101683.47
2018-07-14T08:21:38.375Z,101685.13
2018-07-14T08:24:07.331Z,101683.27
2018-07-14T08:26:36.473Z,101686.56
2018-07-14T08:29:05.671Z,101684.11
2018-07-14T08:31:34.612Z,101691.78
2018-07-14T08:34:03.548Z,101683.03
2018-07-14T08:36:32.449Z,101682.73
2018-07-14T08:39:01.441Z,101683.55
2018-07-14T08:41:30.371Z,101683.85
2018-07-14T08:43:59.584Z,101682.48
2018-07-14T08:46:32.409Z,101681.13
2018-07-14T08:49:01.369Z,101681.13
2018-07-14T08:51:30.387Z,101685.23
2018-07-14T08:53:59.293Z,101680.59
2018-07-14T08:56:28.190Z,101672.69
2018-07-14T08:58:57.127Z,101675.44
2018-07-14T09:01:26.032Z,101677.66
2018-07-14T09:03:54.962Z,101671.89
2018-07-14T09:06:24.205Z,101674.36
2018-07-14T09:08:53.120Z,101682.87
2018-07-14T09:11:22.045Z,101678.48
2018-07-14T09:13:51.019Z,101672.48
2018-07-14T09:16:19.952Z,101674.94
2018-07-14T09:18:48.858Z,101670.83
2018-07-14T09:21:17.807Z,101680.14
2018-07-14T09:23:46.702Z,101675.50
2018-07-14T09:26:15.607Z,101675.50
2018-07-14T09:28:44.559Z,101666.16
2018-07-14T09:31:13.477Z,101662.89
2018-07-14T09:33:42.441Z,101669.74
2018-07-14T09:36:11.404Z,101671.11
2018-07-14T09:38:40.390Z,101672.20
2018-07-14T09:41:09.354Z,101667.00
2018-07-14T09:43:38.344Z,101670.83
2018-07-14T09:46:07.300Z,101666.72
2018-07-14T09:48:36.200Z,101657.94
2018-07-14T09:51:05.121Z,101657.12
2018-07-14T09:53:34.124Z,101656.33
2018-07-14T09:56:06.690Z,101659.88
2018-07-14T09:58:35.619Z,101657.13
2018-07-14T10:01:07.436Z,101652.72
2018-07-14T10:03:36.712Z,101649.97
2018-07-14T10:06:05.676Z,101650.52
2018-07-14T10:08:34.569Z,101640.09
2018-07-14T10:11:03.523Z,101640.09
2018-07-14T10:13:32.476Z,101643.05
2018-07-14T10:16:01.409Z,101643.06
2018-07-14T10:18:30.335Z,101641.42
2018-07-14T10:20:59.282Z,101636.97
2018-07-14T10:23:28.204Z,101626.48
2018-07-14T10:25:57.136Z,101628.41
2018-07-14T10:28:26.050Z,101630.34
2018-07-14T10:30:54.996Z,101625.67
2018-07-14T10:33:23.927Z,101624.30
2018-07-14T10:35:52.858Z,101619.91
2018-07-14T10:38:21.827Z,101619.09
2018-07-14T10:40:50.993Z,101620.75
2018-07-14T10:43:20.407Z,101616.86
2018-07-14T10:45:49.344Z,101618.52
2018-07-14T10:48:22.177Z,101623.13
2018-07-14T10:50:51.062Z,101613.20
2018-07-14T10:53:19.967Z,101619.47
2018-07-14T10:55:48.930Z,101612.38
2018-07-14T10:58:17.926Z,101611.97
2018-07-14T11:00:46.786Z,101612.43
2018-07-14T11:03:15.716Z,101603.09
2018-07-14T11:05:44.622Z,101608.48
2018-07-14T11:08:13.532Z,101600.27
2018-07-14T11:10:42.491Z,101604.09
2018-07-14T11:13:15.267Z,101599.84
2018-07-14T11:15:44.221Z,101596.66
2018-07-14T11:18:13.169Z,101595.92
2018-07-14T11:20:42.150Z,101595.09
2018-07-14T11:23:11.139Z,101592.61
2018-07-14T11:25:41.051Z,101591.06
2018-07-14T11:28:10.945Z,101581.41
2018-07-14T11:30:39.916Z,101582.97
2018-07-14T11:33:08.999Z,101586.98
2018-07-14T11:35:37.913Z,101579.64
2018-07-14T11:38:06.863Z,101584.00
2018-07-14T11:40:35.854Z,101578.39
2018-07-14T11:43:04.840Z,101575.11
2018-07-14T11:45:33.908Z,101563.92
2018-07-14T11:48:02.815Z,101555.50
2018-07-14T11:50:34.921Z,101567.69
2018-07-14T11:53:03.871Z,101560.36
2018-07-14T11:55:32.801Z,101566.20
2018-07-14T11:58:01.721Z,101559.66
2018-07-14T12:00:33.651Z,101564.83
2018-07-14T12:03:02.917Z,101557.81
2018-07-14T12:05:32.071Z,101564.53
2018-07-14T12:08:01.093Z,101551.77
2018-07-14T12:10:29.981Z,101547.20
2018-07-14T12:12:58.904Z,101543.08
2018-07-14T12:15:27.804Z,101544.72
2018-07-14T12:17:56.740Z,101538.64
2018-07-14T12:20:25.647Z,101530.22
2018-07-14T12:22:54.593Z,101538.91
2018-07-14T12:25:23.519Z,101538.14
2018-07-14T12:27:52.413Z,101528.61
2018-07-14T12:30:21.446Z,101526.09
2018-07-14T12:32:50.317Z,101521.35
2018-07-14T12:35:19.231Z,101523.84
2018-07-14T12:37:48.140Z,101515.27
2018-07-14T12:40:17.209Z,101517.03
2018-07-14T12:42:46.117Z,101513.78
2018-07-14T12:45:15.025Z,101516.45
2018-07-14T12:47:43.937Z,101505.28
2018-07-14T12:50:12.862Z,101512.36
2018-07-14T12:52:41.749Z,101508.13
2018-07-14T12:55:11.665Z,101512.48
2018-07-14T12:57:40.629Z,101509.59
2018-07-14T13:00:09.696Z,101498.34
2018-07-14T13:02:38.847Z,101496.52
2018-07-14T13:05:08.103Z,101501.77
2018-07-14T13:07:37.029Z,101501.92
2018-07-14T13:10:06.850Z,101491.03
2018-07-14T13:12:35.869Z,101497.08
2018-07-14T13:15:05.052Z,101491.84
2018-07-14T13:17:33.984Z,101489.80
2018-07-14T13:20:03.349Z,101484.12
2018-07-14T13:22:32.531Z,101493.89
2018-07-14T13:25:01.669Z,101490.08
2018-07-14T13:27:30.608Z,101480.42
2018-07-14T13:29:59.727Z,101470.09
2018-07-14T13:32:28.633Z,101472.05
2018-07-14T13:34:57.801Z,101478.78
2018-07-14T13:37:26.730Z,101474.39
2018-07-14T13:39:55.914Z,101470.06
2018-07-14T13:42:24.848Z,101465.13
2018-07-14T13:44:53.755Z,101467.05
2018-07-14T13:47:22.677Z,101467.70
2018-07-14T13:49:51.607Z,101462.83
2018-07-14T13:52:20.518Z,101462.93
2018-07-14T13:54:49.411Z,101459.83
2018-07-14T13:57:18.437Z,101460.88
2018-07-14T13:59:47.279Z,101446.69
2018-07-14T14:02:16.204Z,101455.40
2018-07-14T14:04:45.107Z,101456.00
2018-07-14T14:07:14.030Z,101442.72
2018-07-14T14:09:42.957Z,101443.72
2018-07-14T14:12:11.902Z,101445.42
2018-07-14T14:14:44.436Z,101446.42
2018-07-14T14:17:13.327Z,101441.85
2018-07-14T14:19:45.699Z,101441.38
2018-07-14T14:22:18.025Z,101442.70
2018-07-14T14:24:46.961Z,101435.78
2018-07-14T14:27:15.866Z,101432.83
2018-07-14T14:29:44.776Z,101429.45
2018-07-14T14:32:13.841Z,101418.09
2018-07-14T14:34:42.731Z,101422.35
2018-07-14T14:37:11.635Z,101418.41
2018-07-14T14:39:40.530Z,101411.03
2018-07-14T14:42:09.438Z,101413.84
2018-07-14T14:44:38.383Z,101413.36
2018-07-14T14:47:07.277Z,101416.55
2018-07-14T14:49:36.180Z,101416.89
2018-07-14T14:52:05.405Z,101412.35
2018-07-14T14:54:34.682Z,101413.27
2018-07-14T14:57:07.571Z,101413.24
2018-07-14T14:59:36.749Z,101415.22
2018-07-14T15:02:05.697Z,101413.96
2018-07-14T15:04:34.565Z,101419.14
2018-07-14T15:07:03.483Z,101416.66
2018-07-14T15:09:32.377Z,101407.72
2018-07-14T15:12:01.301Z,101417.98
2018-07-14T15:14:30.234Z,101402.85
2018-07-14T15:16:59.316Z,101401.37
2018-07-14T15:19:28.424Z,101398.69
2018-07-14T15:21:57.695Z,101404.84
2018-07-14T15:24:26.641Z,101400.04
2018-07-14T15:26:55.548Z,101398.60
2018-07-14T15:29:24.482Z,101393.45
2018-07-14T15:31:53.409Z,101392.52
2018-07-14T15:34:22.364Z,101396.51
2018-07-14T15:36:51.264Z,101388.34
2018-07-14T15:39:20.294Z,101395.50
2018-07-14T15:41:49.207Z,101388.66
2018-07-14T15:44:18.134Z,101387.69
2018-07-14T15:46:47.578Z,101391.99
2018-07-14T15:49:17.663Z,101389.72
2018-07-14T15:51:46.593Z,101388.48
2018-07-14T15:54:15.543Z,101389.87
2018-07-14T15:56:44.469Z,101390.86
2018-07-14T15:59:13.438Z,101389.55
2018-07-14T16:01:42.392Z,101388.16
2018-07-14T16:04:11.311Z,101390.92
2018-07-14T16:06:40.238Z,101388.65
2018-07-14T16:09:09.191Z,101385.36
2018-07-14T16:11:41.764Z,101390.35
2018-07-14T16:14:10.709Z,101397.62
2018-07-14T16:16:39.636Z,101394.59
2018-07-14T16:19:08.634Z,101396.13
2018-07-14T16:21:37.705Z,101394.17
2018-07-14T16:24:06.647Z,101397.45
2018-07-14T16:26:35.553Z,101394.64
2018-07-14T16:29:04.474Z,101393.58
2018-07-14T16:31:33.513Z,101391.58
2018-07-14T16:34:02.418Z,101391.31
2018-07-14T16:36:31.357Z,101390.46
2018-07-14T16:39:00.266Z,101387.39
2018-07-14T16:41:29.179Z,101383.56
2018-07-14T16:43:58.094Z,101390.09
2018-07-14T16:46:27.027Z,101385.00
2018-07-14T16:48:55.955Z,101388.12
2018-07-14T16:51:25.143Z,101378.73
2018-07-14T16:53:54.123Z,101376.67
2018-07-14T16:56:23.007Z,101385.00
2018-07-14T16:58:52.469Z,101376.67
2018-07-14T17:01:21.418Z,101377.89
2018-07-14T17:03:50.296Z,101374.55
2018-07-14T17:06:19.227Z,101376.25
2018-07-14T17:08:48.123Z,101371.47
2018-07-14T17:11:17.289Z,101375.87
2018-07-14T17:13:46.269Z,101374.49
2018-07-14T17:16:15.149Z,101373.22
2018-07-14T17:18:44.072Z,101368.87
2018-07-14T17:21:12.984Z,101377.45
2018-07-14T17:23:41.878Z,101371.16
2018-07-14T17:26:10.808Z,101362.66
2018-07-14T17:28:39.731Z,101374.48
2018-07-14T17:31:09.865Z,101370.52
2018-07-14T17:33:38.926Z,101368.92
2018-07-14T17:36:07.863Z,101374.70
2018-07-14T17:38:36.770Z,101372.31
2018-07-14T17:41:05.695Z,101367.51
2018-07-14T17:43:34.596Z,101364.53
2018-07-14T17:46:03.475Z,101363.38
2018-07-14T17:48:32.415Z,101361.19
2018-07-14T17:51:01.315Z,101361.83
2018-07-14T17:53:30.201Z,101361.70
2018-07-14T17:55:59.075Z,101360.47
2018-07-14T17:58:27.989Z,101364.08
2018-07-14T18:00:56.874Z,101364.08
2018-07-14T18:03:25.766Z,101372.66
2018-07-14T18:05:54.683Z,101365.98
2018-07-14T18:08:23.723Z,101373.81
2018-07-14T18:10:53.076Z,101362.58
2018-07-14T18:13:21.985Z,101366.54
2018-07-14T18:15:50.889Z,101370.98
2018-07-14T18:18:19.770Z,101363.13
2018-07-14T18:20:48.717Z,101369.22
2018-07-14T18:23:17.631Z,101362.33
2018-07-14T18:25:46.538Z,101364.89
2018-07-14T18:28:15.445Z,101369.88
2018-07-14T18:30:44.816Z,101369.34
2018-07-14T18:33:13.711Z,101360.28
2018-07-14T18:35:42.615Z,101369.97
2018-07-14T18:38:11.535Z,101368.90
2018-07-14T18:40:40.437Z,101366.46
2018-07-14T18:43:09.509Z,101370.55
2018-07-14T18:45:38.548Z,101372.51
2018-07-14T18:48:07.490Z,101373.97
2018-07-14T18:50:36.442Z,101369.92
2018-07-14T18:53:05.485Z,101375.52
2018-07-14T18:55:34.355Z,101379.99
2018-07-14T18:58:03.231Z,101377.86
2018-07-14T19:00:32.137Z,101383.63
2018-07-14T19:03:01.281Z,101382.14
2018-07-14T19:05:30.147Z,101388.83
2018-07-14T19:07:59.244Z,101384.22
2018-07-14T19:10:28.209Z,101382.14
2018-07-14T19:12:57.112Z,101384.94
2018-07-14T19:15:26.017Z,101385.20
2018-07-14T19:17:54.960Z,101383.10
2018-07-14T19:20:23.872Z,101386.46
2018-07-14T19:22:56.391Z,101383.98
2018-07-14T19:25:25.276Z,101391.47
2018-07-14T19:27:54.186Z,101388.28
2018-07-14T19:30:23.147Z,101390.83
2018-07-14T19:32:53.020Z,101395.56
2018-07-14T19:35:21.938Z,101404.17
2018-07-14T19:37:50.845Z,101402.06
2018-07-14T19:40:19.794Z,101403.70
2018-07-14T19:42:48.747Z,101403.50
2018-07-14T19:45:17.636Z,101408.22
2018-07-14T19:47:46.568Z,101413.00
2018-07-14T19:50:15.472Z,101416.58
2018-07-14T19:52:44.395Z,101416.91
2018-07-14T19:55:13.315Z,101416.99
2018-07-14T19:57:42.280Z,101419.49
2018-07-14T20:00:11.268Z,101416.53
2018-07-14T20:02:40.181Z,101418.17
2018-07-14T20:05:09.119Z,101421.78
2018-07-14T20:07:38.010Z,101424.39
2018-07-14T20:10:06.942Z,101428.31
2018-07-14T20:12:35.961Z,101428.94
2018-07-14T20:15:04.895Z,101425.94
2018-07-14T20:17:33.817Z,101426.80
2018-07-14T20:20:02.696Z,101427.69
2018-07-14T20:22:31.621Z,101421.98
2018-07-14T20:25:00.529Z,101427.52
2018-07-14T20:27:29.413Z,101429.50
2018-07-14T20:29:58.420Z,101428.48
2018-07-14T20:32:27.329Z,101426.92
2018-07-14T20:34:57.184Z,101428.32
2018-07-14T20:37:26.330Z,101426.75
2018-07-14T20:39:55.278Z,101431.16
2018-07-14T20:42:24.280Z,101426.81
2018-07-14T20:44:53.204Z,101428.77
2018-07-14T20:47:22.160Z,101444.70
2018-07-14T20:49:51.160Z,101437.03
2018-07-14T20:52:20.477Z,101439.50
2018-07-14T20:54:49.330Z,101433.47
2018-07-14T20:57:18.264Z,101440.62
2018-07-14T20:59:47.382Z,101443.66
2018-07-14T21:02:16.329Z,101441.45
2018-07-14T21:04:45.502Z,101441.45
2018-07-14T21:07:14.731Z,101438.72
2018-07-14T21:09:43.657Z,101447.77
2018-07-14T21:12:12.586Z,101441.75
2018-07-14T21:14:42.019Z,101445.08
2018-07-14T21:17:12.022Z,101443.41
2018-07-14T21:19:40.933Z,101446.16
2018-07-14T21:22:10.005Z,101446.46
2018-07-14T21:24:38.967Z,101448.13
2018-07-14T21:27:07.934Z,101447.84
2018-07-14T21:29:36.856Z,101454.42
2018-07-14T21:32:05.869Z,101451.42
2018-07-14T21:34:34.793Z,101456.09
2018-07-14T21:37:03.737Z,101456.92
2018-07-14T21:39:32.647Z,101454.96
2018-07-14T21:42:04.800Z,101453.34
2018-07-14T21:44:33.721Z,101455.25
2018-07-14T21:47:02.693Z,101455.81
2018-07-14T21:49:31.615Z,101458.28
2018-07-14T21:52:00.520Z,101458.84
2018-07-14T21:54:29.457Z,101462.10
2018-07-14T21:56:58.525Z,101457.19
2018-07-14T21:59:27.441Z,101462.10
2018-07-14T22:01:56.374Z,101471.16
2018-07-14T22:04:25.449Z,101468.94
2018-07-14T22:06:54.386Z,101470.87
2018-07-14T22:09:23.325Z,101472.24
2018-07-14T22:13:16.694Z,101467.30
2018-07-14T22:15:45.600Z,101467.58
2018-07-14T22:18:14.532Z,101473.89
2018-07-14T22:20:43.668Z,101469.50
2018-07-14T22:23:12.595Z,101467.01
2018-07-14T22:25:41.462Z,101467.84
2018-07-14T22:28:10.376Z,101464.02
2018-07-14T22:30:39.446Z,101473.83
2018-07-14T22:33:08.328Z,101470.28
2018-07-14T22:35:37.248Z,101465.89
2018-07-14T22:38:06.262Z,101468.11
2018-07-14T22:40:35.133Z,101470.84
2018-07-14T22:43:04.166Z,101454.95
2018-07-14T22:45:33.123Z,101457.17
2018-07-14T22:48:02.267Z,101464.25
2018-07-14T22:50:31.164Z,101453.87
2018-07-14T22:53:00.109Z,101457.97
2018-07-14T22:55:28.994Z,101461.51
2018-07-14T22:57:57.871Z,101454.42
2018-07-14T23:00:26.789Z,101448.66
2018-07-14T23:02:55.904Z,101451.93
2018-07-14T23:05:24.893Z,101459.89
2018-07-14T23:07:53.967Z,101453.58
2018-07-14T23:10:22.858Z,101455.23
2018-07-14T23:12:51.791Z,101456.59
2018-07-14T23:15:20.821Z,101450.03
2018-07-14T23:17:49.740Z,101448.34
2018-07-14T23:20:18.823Z,101448.34
2018-07-14T23:22:47.793Z,101446.98
2018-07-14T23:25:16.722Z,101441.22
2018-07-14T23:27:45.742Z,101449.19
2018-07-14T23:30:14.650Z,101449.71
2018-07-14T23:32:43.577Z,101451.39
2018-07-14T23:35:12.451Z,101453.05
2018-07-14T23:37:41.486Z,101448.89
2018-07-14T23:40:10.881Z,101457.09
2018-07-14T23:42:39.965Z,101454.07
2018-07-14T23:45:08.975Z,101452.72
2018-07-14T23:47:37.857Z,101447.53
2018-07-14T23:50:06.813Z,101445.59
2018-07-14T23:52:39.306Z,101445.03
2018-07-14T23:55:08.312Z,101439.84
2018-07-14T23:57:37.137Z,101440.38
